This is the latest recevied weather packets stored in our database for station/object WZ9ZZZ-1. If no packets are shown the sender has not sent any weather packets the latest 10 day(s).
| Time | Temp. | Humidity | Pressure | Rain* | Wind** | Luminosity | Snow |
|---|---|---|---|---|---|---|---|
| 1777757926 | 25° C | 42% | 1021.3 hPa | 0 mm | - | 503 W/m² | - |
| 1777757622 | 25.56° C | 42% | 1021.4 hPa | 0 mm | - | 515 W/m² | - |
| 1777757322 | 25° C | 42% | 1021.2 hPa | 0 mm | - | 525 W/m² | - |
| 1777757020 | 25° C | 44% | 1021.6 hPa | 0 mm | - | 537 W/m² | - |
| 1777756716 | 25.56° C | 42% | 1021.5 hPa | 0 mm | - | 547 W/m² | - |
| 1777756412 | 25° C | 44% | 1021.5 hPa | 0 mm | - | 566 W/m² | - |
| 1777755504 | 24.44° C | 45% | 1021.3 hPa | 0 mm | - | 619 W/m² | - |
| 1777752781 | 24.44° C | 45% | 1022.1 hPa | 0 mm | - | 701 W/m² | - |
| 1777751872 | 25° C | 43% | 1022 hPa | 0 mm | - | 696 W/m² | - |
| 1777750657 | 25.56° C | 45% | 1022.4 hPa | 0 mm | - | 710 W/m² | - |
| 1777750055 | 25° C | 44% | 1022.4 hPa | 0 mm | - | 716 W/m² | - |
| 1777749449 | 24.44° C | 46% | 1022.7 hPa | 0 mm | - | 722 W/m² | - |
| 1777743390 | 23.33° C | 55% | 1023.6 hPa | 0 mm | - | 720 W/m² | - |
| 1777742177 | 22.78° C | 53% | 1023.4 hPa | 0 mm | - | 681 W/m² | - |
| 1777740964 | 21.67° C | 59% | 1023.7 hPa | 0 mm | - | 691 W/m² | - |
| 1777740055 | 21.67° C | 61% | 1023.4 hPa | 0 mm | - | 658 W/m² | - |
| 1777739750 | 21.11° C | 61% | 1023.4 hPa | 0 mm | - | 667 W/m² | - |
| 1777739448 | 21.11° C | 62% | 1023.5 hPa | 0 mm | - | 666 W/m² | - |
| 1777739144 | 21.67° C | 60% | 1023.5 hPa | 0 mm | - | 655 W/m² | - |
| 1777738842 | 22.22° C | 64% | 1023.5 hPa | 0 mm | - | 659 W/m² | - |
| 1777738538 | 21.11° C | 64% | 1023.3 hPa | 0 mm | - | 634 W/m² | - |
| 1777738236 | 21.11° C | 64% | 1023.3 hPa | 0 mm | - | 630 W/m² | - |
| 1777737934 | 20.56° C | 65% | 1023.3 hPa | 0 mm | - | 628 W/m² | - |
| 1777737331 | 20° C | 67% | 1023.1 hPa | 0 mm | - | 637 W/m² | - |
| 1777737027 | 20° C | 66% | 1023.4 hPa | 0 mm | - | 630 W/m² | - |
* Rain latest hour (hover to see other rain measurements)
** Current wind speed in m/s (hover to see current wind gust speed)